GMAD/AGA METAR and TAF weather

Enter ICAO airport designator
Station Type Date Time Source
GMAD METAR 2019/02/23 16:30 UTC NOAA

GMAD 231630Z 27017KT CAVOK 26/M04 Q1022 NOSIG


Station Type Date Time Source
GMAD Decoded METAR 2019/02/23 16:30 UTC NOAA

Agadir Al Massira, Morocco (GMAD) 30-20N 009-24W 74M
Feb 23, 2019 - 11:30 AM EST / 2019.02.23 1630 UTC
Wind: from the W (270 degrees) at 20 MPH (17 KT):0
Visibility: greater than 7 mile(s):0
Temperature: 78 F (26 C)
Dew Point: 24 F (-4 C)
Relative Humidity: 13%
Pressure (altimeter): 30.18 in. Hg (1022 hPa)
ob: GMAD 231630Z 27017KT CAVOK 26/M04 Q1022 NOSIG
cycle: 16

Station Type Date Time Source
GMAD TAF 2019/02/23 12:18 UTC NOAA

TAF TAF GMAD 231100Z 2312/2418 26010KT CAVOK
BECMG 2322/2324 07006KT


Example: see airport list